createdAt,value
2023-03-05T00:01:55.025Z,6.55
2023-03-05T00:04:21.515Z,5.88
2023-03-05T00:06:48.102Z,6.80
2023-03-05T00:09:14.656Z,7.03
2023-03-05T00:11:41.194Z,6.13
2023-03-05T00:14:07.707Z,6.40
2023-03-05T00:16:34.289Z,7.05
2023-03-05T00:19:01.706Z,5.63
2023-03-05T00:21:34.071Z,7.40
2023-03-05T00:24:02.790Z,5.82
2023-03-05T00:26:30.771Z,6.72
2023-03-05T00:28:58.210Z,7.65
2023-03-05T00:31:31.781Z,7.20
2023-03-05T00:34:01.005Z,7.57
2023-03-05T00:36:28.059Z,9.70
2023-03-05T00:38:55.473Z,7.22
2023-03-05T00:41:22.555Z,6.95
2023-03-05T00:43:49.293Z,6.53
2023-03-05T00:46:16.497Z,7.22
2023-03-05T00:48:43.317Z,7.15
2023-03-05T00:51:09.974Z,7.60
2023-03-05T00:53:36.688Z,6.88
2023-03-05T00:56:04.648Z,7.20
2023-03-05T00:58:31.216Z,7.40
2023-03-05T01:00:59.950Z,8.02
2023-03-05T01:03:27.507Z,7.60
2023-03-05T01:05:55.287Z,8.23
2023-03-05T01:08:21.779Z,6.55
2023-03-05T01:10:48.764Z,8.00
2023-03-05T01:13:15.278Z,7.57
2023-03-05T01:15:42.099Z,7.10
2023-03-05T01:18:08.885Z,6.95
2023-03-05T01:20:35.637Z,7.53
2023-03-05T01:23:02.922Z,6.97
2023-03-05T01:25:29.549Z,7.22
2023-03-05T01:27:56.744Z,6.40
2023-03-05T01:30:23.284Z,6.55
2023-03-05T01:32:49.852Z,6.35
2023-03-05T01:35:20.416Z,5.93
2023-03-05T01:37:47.514Z,5.93
2023-03-05T01:40:17.859Z,7.30
2023-03-05T01:42:48.954Z,6.70
2023-03-05T01:45:18.555Z,6.15
2023-03-05T01:47:45.518Z,6.75
2023-03-05T01:50:16.796Z,6.22
2023-03-05T01:52:49.649Z,6.68
2023-03-05T01:55:37.155Z,6.32
2023-03-05T01:58:08.733Z,6.75
2023-03-05T02:00:40.032Z,7.97
2023-03-05T02:03:10.458Z,8.00
2023-03-05T02:05:41.086Z,7.25
2023-03-05T02:08:10.296Z,6.43
2023-03-05T02:10:40.104Z,6.57
2023-03-05T02:13:09.772Z,7.28
2023-03-05T02:15:37.733Z,6.90
2023-03-05T02:18:05.860Z,6.35
2023-03-05T02:20:43.936Z,7.35
2023-03-05T02:23:10.496Z,6.10
2023-03-05T02:25:37.037Z,6.10
2023-03-05T02:28:08.928Z,7.20
2023-03-05T02:30:35.943Z,7.05
2023-03-05T02:33:03.134Z,7.20
2023-03-05T02:35:29.676Z,6.60
2023-03-05T02:37:57.481Z,6.60
2023-03-05T02:40:24.298Z,8.20
2023-03-05T02:42:52.101Z,6.97
2023-03-05T02:45:18.974Z,6.82
2023-03-05T02:47:45.743Z,6.40
2023-03-05T02:50:12.366Z,7.05
2023-03-05T02:52:40.335Z,7.00
2023-03-05T02:55:11.237Z,9.10
2023-03-05T02:57:39.288Z,7.15
2023-03-05T03:00:06.687Z,7.22
2023-03-05T03:02:34.262Z,7.43
2023-03-05T03:05:00.753Z,7.20
2023-03-05T03:07:27.214Z,6.88
2023-03-05T03:09:53.846Z,6.55
2023-03-05T03:12:20.327Z,7.65
2023-03-05T03:14:46.784Z,6.35
2023-03-05T03:17:15.935Z,7.05
2023-03-05T03:19:43.699Z,7.70
2023-03-05T03:22:12.047Z,7.10
2023-03-05T03:24:39.585Z,7.10
2023-03-05T03:27:06.902Z,6.40
2023-03-05T03:29:33.429Z,7.25
2023-03-05T03:32:00.004Z,7.65
2023-03-05T03:34:27.124Z,7.43
2023-03-05T03:36:54.220Z,7.85
2023-03-05T03:39:21.963Z,8.23
2023-03-05T03:41:50.833Z,7.43
2023-03-05T03:44:18.885Z,7.30
2023-03-05T03:46:47.026Z,6.38
2023-03-05T03:49:23.313Z,7.50
2023-03-05T03:51:51.456Z,6.45
2023-03-05T03:54:19.054Z,7.10
2023-03-05T03:56:45.572Z,6.47
2023-03-05T03:59:13.011Z,7.47
2023-03-05T04:01:39.522Z,7.15
2023-03-05T04:04:07.243Z,7.45
2023-03-05T04:06:34.489Z,8.02
2023-03-05T04:09:01.020Z,7.22
2023-03-05T04:11:27.505Z,7.47
2023-03-05T04:13:54.004Z,7.78
2023-03-05T04:16:20.630Z,7.43
2023-03-05T04:18:47.634Z,7.63
2023-03-05T04:21:14.184Z,7.88
2023-03-05T04:23:41.146Z,6.72
2023-03-05T04:26:07.691Z,7.20
2023-03-05T04:28:35.271Z,6.97
2023-03-05T04:31:02.527Z,6.65
2023-03-05T04:33:29.087Z,6.15
2023-03-05T04:35:55.932Z,7.50
2023-03-05T04:38:22.636Z,7.18
2023-03-05T04:40:49.119Z,7.05
2023-03-05T04:43:15.657Z,7.78
2023-03-05T04:45:43.290Z,7.88
2023-03-05T04:48:11.447Z,8.32
2023-03-05T04:50:38.716Z,7.30
2023-03-05T04:53:05.557Z,6.40
2023-03-05T04:55:32.070Z,8.65
2023-03-05T04:57:58.734Z,6.88
2023-03-05T05:00:25.491Z,8.10
2023-03-05T05:02:52.634Z,8.10
2023-03-05T05:05:22.446Z,7.00
2023-03-05T05:07:49.006Z,7.53
2023-03-05T05:10:16.301Z,7.57
2023-03-05T05:12:43.003Z,7.38
2023-03-05T05:15:11.638Z,7.43
2023-03-05T05:17:38.252Z,8.15
2023-03-05T05:20:06.652Z,7.05
2023-03-05T05:22:33.806Z,8.13
2023-03-05T05:25:00.824Z,7.95
2023-03-05T05:27:27.604Z,7.45
2023-03-05T05:29:54.050Z,8.70
2023-03-05T05:32:22.520Z,7.97
2023-03-05T05:34:49.303Z,7.65
2023-03-05T05:37:15.883Z,8.05
2023-03-05T05:39:42.318Z,9.70
2023-03-05T05:42:08.852Z,8.48
2023-03-05T05:44:35.467Z,7.70
2023-03-05T05:47:02.029Z,8.00
2023-03-05T05:49:28.675Z,7.82
2023-03-05T05:51:55.227Z,8.00
2023-03-05T05:54:22.492Z,7.53
2023-03-05T05:56:48.944Z,7.63
2023-03-05T05:59:15.413Z,8.02
2023-03-05T06:01:41.944Z,8.25
2023-03-05T06:04:08.450Z,8.75
2023-03-05T06:06:35.022Z,8.23
2023-03-05T06:09:02.051Z,9.65
2023-03-05T06:11:28.617Z,8.88
2023-03-05T06:13:55.474Z,8.73
2023-03-05T06:16:24.230Z,8.13
2023-03-05T06:18:54.031Z,9.65
2023-03-05T06:21:22.308Z,8.30
2023-03-05T06:23:49.649Z,8.75
2023-03-05T06:26:19.100Z,8.07
2023-03-05T06:28:45.886Z,8.98
2023-03-05T06:31:25.807Z,8.77
2023-03-05T06:33:54.594Z,7.60
2023-03-05T06:36:22.477Z,7.97
2023-03-05T06:38:52.060Z,8.60
2023-03-05T06:41:22.960Z,8.65
2023-03-05T06:43:49.570Z,8.95
2023-03-05T06:46:17.940Z,8.45
2023-03-05T06:48:44.822Z,8.90
2023-03-05T06:51:35.746Z,8.98
2023-03-05T06:54:07.885Z,8.30
2023-03-05T06:56:38.725Z,8.45
2023-03-05T06:59:05.626Z,8.50
2023-03-05T07:01:32.351Z,8.38
2023-03-05T07:04:00.283Z,9.68
2023-03-05T07:06:30.038Z,9.07
2023-03-05T07:08:57.721Z,8.02
2023-03-05T07:11:25.287Z,7.45
2023-03-05T07:13:51.868Z,8.90
2023-03-05T07:16:26.366Z,8.57
2023-03-05T07:18:53.829Z,8.35
2023-03-05T07:21:27.514Z,9.15
2023-03-05T07:23:55.213Z,8.63
2023-03-05T07:26:22.675Z,8.65
2023-03-05T07:28:49.211Z,8.50
2023-03-05T07:31:21.433Z,8.13
2023-03-05T07:33:49.514Z,8.48
2023-03-05T07:36:17.272Z,7.65
2023-03-05T07:38:43.866Z,8.73
2023-03-05T07:41:19.998Z,8.65
2023-03-05T07:43:48.944Z,8.63
2023-03-05T07:46:17.366Z,9.00
2023-03-05T07:48:43.990Z,8.57
2023-03-05T07:51:17.327Z,8.52
2023-03-05T07:53:44.922Z,7.57
2023-03-05T07:56:11.765Z,8.90
2023-03-05T07:58:38.382Z,9.50
2023-03-05T08:01:13.438Z,9.27
2023-03-05T08:03:41.570Z,8.15
2023-03-05T08:06:08.939Z,8.52
2023-03-05T08:08:36.240Z,7.35
2023-03-05T08:11:07.901Z,8.15
2023-03-05T08:13:34.595Z,7.82
2023-03-05T08:16:08.043Z,8.55
2023-03-05T08:18:34.962Z,8.30
2023-03-05T08:21:01.678Z,6.97
2023-03-05T08:23:28.772Z,8.70
2023-03-05T08:25:55.876Z,8.30
2023-03-05T08:28:22.430Z,9.68
2023-03-05T08:30:49.459Z,10.82
2023-03-05T08:33:19.407Z,8.68
2023-03-05T08:35:45.973Z,8.52
2023-03-05T08:38:12.454Z,8.10
2023-03-05T08:40:38.911Z,10.23
2023-03-05T08:43:07.120Z,11.32
2023-03-05T08:45:33.825Z,9.90
2023-03-05T08:48:00.290Z,8.85
2023-03-05T08:50:26.965Z,8.32
2023-03-05T08:52:53.418Z,8.38
2023-03-05T08:55:19.879Z,11.30
2023-03-05T08:57:46.362Z,9.30
2023-03-05T09:00:13.929Z,8.77
2023-03-05T09:02:40.527Z,10.25
2023-03-05T09:05:07.646Z,10.45
2023-03-05T09:07:34.171Z,10.13
2023-03-05T09:10:00.724Z,8.52
2023-03-05T09:12:27.244Z,9.98
2023-03-05T09:14:57.374Z,8.60
2023-03-05T09:17:24.175Z,8.95
2023-03-05T09:19:50.621Z,8.18
2023-03-05T09:22:17.157Z,8.98
2023-03-05T09:24:44.067Z,8.93
2023-03-05T09:27:10.708Z,9.85
2023-03-05T09:29:37.216Z,7.45
2023-03-05T09:32:03.901Z,7.72
2023-03-05T09:34:30.514Z,7.82
2023-03-05T09:36:56.955Z,8.48
2023-03-05T09:39:23.451Z,10.18
2023-03-05T09:42:02.474Z,14.48
2023-03-05T09:44:29.001Z,11.77
2023-03-05T09:47:05.212Z,12.13
2023-03-05T09:49:57.944Z,9.40
2023-03-05T09:52:53.990Z,8.48
2023-03-05T09:55:27.541Z,8.48
2023-03-05T09:57:59.276Z,9.68
2023-03-05T10:00:47.095Z,8.93
2023-03-05T10:03:22.309Z,10.07
2023-03-05T10:06:06.398Z,8.90
2023-03-05T10:08:46.330Z,9.18
2023-03-05T10:11:39.865Z,8.82
2023-03-05T10:14:13.741Z,9.52
2023-03-05T10:16:52.297Z,9.63
2023-03-05T10:19:37.104Z,10.20
2023-03-05T10:22:19.444Z,10.48
2023-03-05T10:25:20.408Z,11.13
2023-03-05T10:27:56.905Z,10.02
2023-03-05T10:30:39.022Z,10.13
2023-03-05T10:33:14.858Z,8.77
2023-03-05T10:35:44.650Z,10.43
2023-03-05T10:38:23.694Z,10.05
2023-03-05T10:40:54.446Z,9.85
2023-03-05T10:43:31.027Z,10.25
2023-03-05T10:45:58.519Z,10.50
2023-03-05T10:48:31.305Z,13.35
2023-03-05T10:51:02.195Z,11.90
2023-03-05T10:53:50.430Z,12.18
2023-03-05T10:56:21.535Z,11.05
2023-03-05T10:58:48.192Z,12.43
2023-03-05T11:01:15.624Z,11.30
2023-03-05T11:04:03.576Z,11.65
2023-03-05T11:06:45.792Z,18.63
2023-03-05T11:09:32.380Z,10.13
2023-03-05T11:12:01.945Z,11.65
2023-03-05T11:14:33.453Z,12.38
2023-03-05T11:17:02.440Z,11.48
2023-03-05T11:19:34.514Z,12.45
2023-03-05T11:22:21.762Z,12.85
2023-03-05T11:25:14.623Z,13.32
2023-03-05T11:27:52.509Z,10.95
2023-03-05T11:30:37.795Z,14.15
2023-03-05T11:33:15.137Z,29.02
2023-03-05T11:35:43.672Z,13.55
2023-03-05T11:38:27.454Z,21.63
2023-03-05T11:40:56.292Z,10.82
2023-03-05T11:43:25.881Z,13.65
2023-03-05T11:45:59.271Z,14.90
2023-03-05T11:48:30.457Z,10.02
2023-03-05T11:51:01.609Z,10.07
2023-03-05T11:53:37.060Z,8.48
2023-03-05T11:56:21.478Z,9.30
2023-03-05T11:59:19.073Z,8.98
2023-03-05T12:01:54.218Z,10.35
2023-03-05T12:04:22.154Z,8.98
2023-03-05T12:06:58.310Z,9.27
2023-03-05T12:09:47.749Z,7.65
2023-03-05T12:12:26.376Z,7.90
2023-03-05T12:15:04.758Z,11.63
2023-03-05T12:17:39.911Z,7.60
2023-03-05T12:20:18.602Z,10.02
2023-03-05T12:22:45.688Z,8.25
2023-03-05T12:25:44.325Z,8.30
2023-03-05T12:28:34.641Z,9.75
2023-03-05T12:31:20.351Z,14.95
2023-03-05T12:33:46.836Z,11.30
2023-03-05T12:36:19.364Z,10.05
2023-03-05T12:38:52.918Z,13.38
2023-03-05T12:41:22.220Z,8.75
2023-03-05T12:44:07.083Z,8.15
2023-03-05T12:46:36.108Z,7.30
2023-03-05T12:49:17.861Z,7.63
2023-03-05T12:51:46.890Z,9.30
2023-03-05T12:54:35.765Z,7.43
2023-03-05T12:57:13.324Z,7.50
2023-03-05T13:00:08.259Z,8.60
2023-03-05T13:02:38.659Z,8.40
2023-03-05T13:05:21.739Z,8.98
2023-03-05T13:07:49.312Z,7.80
2023-03-05T13:10:28.886Z,8.05
2023-03-05T13:12:58.444Z,8.57
2023-03-05T13:15:26.299Z,7.97
2023-03-05T13:18:01.143Z,8.60
2023-03-05T13:20:37.554Z,8.32
2023-03-05T13:23:21.085Z,7.75
2023-03-05T13:25:59.720Z,8.80
2023-03-05T13:28:26.615Z,9.43
2023-03-05T13:30:57.065Z,8.02
2023-03-05T13:33:28.026Z,8.10
2023-03-05T13:35:54.989Z,8.32
2023-03-05T13:38:25.002Z,8.05
2023-03-05T13:41:04.131Z,9.23
2023-03-05T13:43:30.732Z,7.45
2023-03-05T13:45:58.600Z,8.88
2023-03-05T13:48:26.971Z,8.68
2023-03-05T13:50:58.307Z,8.23
2023-03-05T13:53:30.734Z,9.60
2023-03-05T13:56:02.849Z,8.77
2023-03-05T13:58:53.415Z,9.52
2023-03-05T14:01:36.882Z,8.52
2023-03-05T14:04:15.823Z,10.13
2023-03-05T14:07:05.784Z,8.50
2023-03-05T14:09:38.207Z,9.93
2023-03-05T14:12:14.704Z,10.75
2023-03-05T14:14:43.844Z,10.02
2023-03-05T14:17:38.132Z,10.30
2023-03-05T14:20:23.284Z,10.18
2023-03-05T14:22:53.377Z,9.73
2023-03-05T14:25:39.624Z,9.50
2023-03-05T14:28:18.195Z,10.32
2023-03-05T14:30:46.303Z,9.60
2023-03-05T14:33:13.346Z,10.02
2023-03-05T14:35:40.281Z,10.23
2023-03-05T14:38:08.408Z,10.57
2023-03-05T14:40:36.383Z,10.88
2023-03-05T14:43:10.660Z,9.32
2023-03-05T14:45:43.553Z,10.65
2023-03-05T14:48:13.464Z,11.00
2023-03-05T14:50:51.655Z,10.68
2023-03-05T14:53:21.955Z,9.73
2023-03-05T14:55:51.098Z,11.25
2023-03-05T14:58:21.714Z,10.85
2023-03-05T15:00:51.087Z,10.18
2023-03-05T15:03:18.666Z,10.50
2023-03-05T15:05:48.311Z,10.18
2023-03-05T15:08:18.374Z,10.73
2023-03-05T15:10:44.864Z,9.75
2023-03-05T15:13:16.709Z,11.63
2023-03-05T15:15:45.044Z,11.30
2023-03-05T15:18:17.405Z,10.27
2023-03-05T15:20:45.092Z,10.00
2023-03-05T15:23:12.843Z,10.35
2023-03-05T15:25:40.036Z,9.88
2023-03-05T15:28:06.730Z,9.98
2023-03-05T15:30:41.393Z,10.02
2023-03-05T15:33:11.927Z,11.25
2023-03-05T15:35:38.606Z,10.50
2023-03-05T15:38:05.275Z,10.00
2023-03-05T15:40:32.211Z,9.82
2023-03-05T15:43:00.208Z,11.23
2023-03-05T15:45:27.543Z,10.57
2023-03-05T15:47:54.173Z,10.43
2023-03-05T15:50:21.764Z,10.88
2023-03-05T15:52:49.099Z,10.23
2023-03-05T15:55:15.993Z,10.70
2023-03-05T15:57:44.575Z,9.45
2023-03-05T16:00:13.293Z,10.95
2023-03-05T16:02:39.859Z,10.85
2023-03-05T16:05:07.339Z,10.20
2023-03-05T16:07:36.832Z,10.77
2023-03-05T16:10:05.029Z,10.82
2023-03-05T16:12:40.491Z,11.20
2023-03-05T16:15:09.624Z,10.68
2023-03-05T16:17:36.984Z,11.13
2023-03-05T16:20:04.886Z,11.30
2023-03-05T16:22:31.347Z,10.50
2023-03-05T16:24:58.480Z,11.68
2023-03-05T16:27:25.054Z,10.75
2023-03-05T16:29:51.562Z,10.07
2023-03-05T16:32:18.443Z,11.00
2023-03-05T16:34:45.041Z,10.50
2023-03-05T16:37:19.481Z,10.32
2023-03-05T16:39:46.170Z,10.95
2023-03-05T16:42:13.896Z,13.18
2023-03-05T16:44:41.864Z,10.65
2023-03-05T16:47:11.935Z,10.52
2023-03-05T16:49:39.391Z,10.18
2023-03-05T16:52:18.429Z,12.45
2023-03-05T16:54:45.592Z,10.65
2023-03-05T16:57:12.254Z,11.05
2023-03-05T16:59:39.005Z,10.88
2023-03-05T17:02:05.939Z,10.70
2023-03-05T17:04:32.764Z,11.63
2023-03-05T17:06:59.658Z,10.93
2023-03-05T17:09:26.179Z,11.35
2023-03-05T17:11:54.189Z,12.15
2023-03-05T17:14:21.301Z,11.05
2023-03-05T17:16:48.061Z,10.95
2023-03-05T17:19:14.863Z,10.93
2023-03-05T17:21:42.541Z,11.93
2023-03-05T17:24:10.209Z,10.98
2023-03-05T17:26:36.807Z,11.40
2023-03-05T17:29:06.882Z,12.35
2023-03-05T17:31:33.754Z,10.93
2023-03-05T17:34:00.221Z,11.02
2023-03-05T17:36:26.913Z,10.23
2023-03-05T17:38:53.850Z,11.50
2023-03-05T17:41:20.821Z,11.70
2023-03-05T17:43:47.865Z,11.45
2023-03-05T17:46:15.129Z,11.50
2023-03-05T17:48:41.885Z,12.68
2023-03-05T17:51:11.431Z,10.85
2023-03-05T17:53:39.407Z,15.35
2023-03-05T17:56:08.055Z,11.80
2023-03-05T17:58:34.607Z,15.68
2023-03-05T18:01:01.244Z,12.88
2023-03-05T18:03:27.731Z,12.00
2023-03-05T18:05:54.425Z,12.93
2023-03-05T18:08:21.028Z,12.57
2023-03-05T18:10:47.561Z,14.23
2023-03-05T18:13:14.205Z,14.43
2023-03-05T18:15:47.233Z,13.45
2023-03-05T18:18:15.701Z,12.90
2023-03-05T18:20:42.833Z,12.23
2023-03-05T18:23:09.779Z,12.27
2023-03-05T18:25:36.294Z,12.13
2023-03-05T18:28:05.450Z,11.20
2023-03-05T18:30:33.039Z,11.30
2023-03-05T18:33:00.524Z,11.10
2023-03-05T18:35:29.100Z,11.38
2023-03-05T18:37:56.206Z,13.15
2023-03-05T18:40:25.227Z,11.40
2023-03-05T18:42:51.873Z,16.30
2023-03-05T18:45:20.971Z,14.13
2023-03-05T18:47:48.992Z,18.83
2023-03-05T18:50:18.625Z,16.10
2023-03-05T18:52:48.061Z,13.65
2023-03-05T18:55:27.634Z,13.18
2023-03-05T18:57:54.929Z,12.88
2023-03-05T19:00:25.472Z,15.27
2023-03-05T19:02:52.295Z,16.60
2023-03-05T19:05:19.062Z,14.38
2023-03-05T19:07:46.947Z,14.30
2023-03-05T19:10:15.234Z,18.23
2023-03-05T19:12:57.834Z,14.68
2023-03-05T19:15:24.523Z,13.85
2023-03-05T19:17:51.673Z,14.65
2023-03-05T19:20:18.737Z,21.48
2023-03-05T19:22:45.369Z,14.23
2023-03-05T19:25:12.474Z,13.30
2023-03-05T19:27:39.324Z,12.68
2023-03-05T19:30:06.764Z,13.10
2023-03-05T19:32:33.330Z,13.27
2023-03-05T19:35:00.039Z,14.13
2023-03-05T19:37:27.191Z,13.73
2023-03-05T19:39:53.754Z,11.25
2023-03-05T19:42:20.484Z,11.18
2023-03-05T19:44:47.041Z,15.20
2023-03-05T19:47:13.574Z,11.75
2023-03-05T19:49:40.372Z,11.85
2023-03-05T19:52:07.316Z,10.85
2023-03-05T19:54:34.289Z,15.75
2023-03-05T19:57:00.852Z,12.32
2023-03-05T19:59:27.449Z,12.40
2023-03-05T20:01:54.279Z,11.45
2023-03-05T20:04:22.682Z,18.42
2023-03-05T20:06:49.796Z,12.88
2023-03-05T20:09:17.015Z,16.30
2023-03-05T20:11:44.248Z,14.90
2023-03-05T20:14:13.079Z,11.85
2023-03-05T20:16:39.906Z,14.05
2023-03-05T20:19:07.754Z,12.80
2023-03-05T20:21:38.689Z,12.15
2023-03-05T20:24:09.884Z,12.90
2023-03-05T20:26:38.604Z,12.55
2023-03-05T20:29:05.764Z,11.60
2023-03-05T20:31:37.125Z,11.85
2023-03-05T20:34:12.878Z,10.80
2023-03-05T20:36:40.279Z,13.10
2023-03-05T20:39:07.458Z,11.40
2023-03-05T20:41:35.933Z,12.68
2023-03-05T20:44:03.389Z,10.65
2023-03-05T20:46:32.367Z,10.95
2023-03-05T20:49:00.774Z,11.50
2023-03-05T20:51:35.835Z,12.00
2023-03-05T20:54:05.579Z,12.68
2023-03-05T20:56:34.793Z,12.90
2023-03-05T20:59:04.462Z,12.68
2023-03-05T21:01:32.967Z,11.02
2023-03-05T21:04:00.413Z,12.35
2023-03-05T21:06:28.243Z,12.10
2023-03-05T21:08:55.110Z,11.65
2023-03-05T21:11:22.249Z,10.35
2023-03-05T21:13:48.887Z,11.50
2023-03-05T21:16:18.613Z,11.63
2023-03-05T21:18:45.649Z,10.43
2023-03-05T21:21:12.494Z,12.20
2023-03-05T21:23:39.056Z,13.00
2023-03-05T21:26:05.868Z,11.70
2023-03-05T21:28:33.030Z,11.50
2023-03-05T21:31:06.731Z,12.15
2023-03-05T21:33:33.405Z,11.15
2023-03-05T21:36:00.114Z,11.90
2023-03-05T21:38:29.765Z,10.82
2023-03-05T21:40:58.440Z,10.77
2023-03-05T21:43:26.244Z,10.85
2023-03-05T21:45:54.780Z,9.50
2023-03-05T21:48:22.583Z,11.02
2023-03-05T21:50:49.833Z,10.57
2023-03-05T21:53:17.259Z,10.80
2023-03-05T21:56:04.164Z,10.20
2023-03-05T21:58:33.045Z,9.40
2023-03-05T22:01:00.061Z,9.45
2023-03-05T22:03:27.440Z,9.27
2023-03-05T22:05:55.625Z,8.98
2023-03-05T22:08:23.674Z,9.30
2023-03-05T22:10:50.473Z,8.88
2023-03-05T22:13:17.950Z,9.52
2023-03-05T22:15:50.449Z,9.40
2023-03-05T22:18:20.055Z,9.02
2023-03-05T22:20:47.096Z,9.00
2023-03-05T22:23:14.279Z,10.30
2023-03-05T22:25:41.905Z,9.32
2023-03-05T22:28:09.748Z,8.77
2023-03-05T22:30:36.744Z,9.85
2023-03-05T22:33:03.728Z,10.52
2023-03-05T22:35:30.509Z,9.18
2023-03-05T22:37:58.566Z,9.27
2023-03-05T22:40:25.088Z,8.32
2023-03-05T22:42:51.694Z,9.13
2023-03-05T22:45:18.715Z,9.10
2023-03-05T22:47:49.803Z,8.88
2023-03-05T22:50:17.440Z,9.75
2023-03-05T22:52:44.014Z,9.32
2023-03-05T22:55:14.955Z,10.27
2023-03-05T22:57:42.448Z,9.13
2023-03-05T23:00:16.666Z,10.40
2023-03-05T23:02:44.566Z,9.63
2023-03-05T23:05:12.050Z,10.07
2023-03-05T23:07:40.705Z,9.88
2023-03-05T23:10:10.680Z,9.52
2023-03-05T23:12:40.218Z,10.15
2023-03-05T23:15:13.708Z,9.82
2023-03-05T23:17:40.672Z,9.15
2023-03-05T23:20:10.108Z,9.93
2023-03-05T23:22:38.437Z,9.10
2023-03-05T23:25:05.721Z,8.93
2023-03-05T23:27:32.230Z,9.00
2023-03-05T23:30:20.039Z,9.32
2023-03-05T23:32:48.225Z,8.65
2023-03-05T23:35:18.340Z,8.10
2023-03-05T23:37:44.959Z,9.13
2023-03-05T23:40:24.479Z,8.25
2023-03-05T23:42:51.994Z,8.18
2023-03-05T23:45:20.238Z,9.27
2023-03-05T23:47:48.337Z,9.13
2023-03-05T23:50:29.246Z,8.82
2023-03-05T23:52:55.950Z,8.77
2023-03-05T23:55:27.196Z,8.40
2023-03-05T23:57:54.407Z,8.48
